Time;durP1;ratioP1;P1;durP2;ratioP2;P2;SDS_P1;SDS_P2;PMS_P1;PMS_P2;Temp;Humidity;BMP_temperature;BMP_pressure;BME280_temperature;BME280_humidity;BME280_pressure;Samples;Min_cycle;Max_cycle;Signal;HPM_P1;HPM_P2
2021/07/15 00:04:32;;;;;;;80.57;33.92;;;;;;;;;;4341129;33;20516;-85
2021/07/15 00:07:23;;;;;;;72.53;35.17;;;;;;;;;;4344380;32;20184;-84
2021/07/15 00:10:18;;;;;;;;;;;;;;;;;;;;;
2021/07/15 00:13:19;;;;;;;76.28;35.78;;;;;;;;;;4333484;33;20659;-84
2021/07/15 00:15:47;;;;;;;64.50;34.42;;;;;;;;;;4343287;33;20158;-84
2021/07/15 00:18:22;;;;;;;67.60;33.85;;;;;;;;;;4330604;33;20482;-84
2021/07/15 00:26:56;;;;;;;77.40;36.05;;;;;;;;;;4343633;33;20610;-84
2021/07/15 00:29:21;;;;;;;74.90;36.90;;;;;;;;;;4343153;32;20163;-84
2021/07/15 00:31:49;;;;;;;72.15;35.38;;;;;;;;;;4331002;33;20539;-84
2021/07/15 00:34:37;;;;;;;68.53;35.05;;;;;;;;;;4342817;33;20702;-84
2021/07/15 00:37:47;;;;;;;63.60;34.50;;;;;;;;;;4342576;33;20290;-84
2021/07/15 00:46:21;;;;;;;61.92;32.17;;;;;;;;;;4375089;32;20208;-84
2021/07/15 00:58:03;;;;;;;76.55;35.72;;;;;;;;;;4374994;32;20554;-84
2021/07/15 01:01:09;;;;;;;71.65;37.40;;;;;;;;;;4362209;32;20177;-84
2021/07/15 01:03:43;;;;;;;65.68;32.20;;;;;;;;;;4343349;33;20163;-84
2021/07/15 01:06:27;;;;;;;;;;;;;;;;;;;;;
2021/07/15 01:08:52;;;;;;;67.65;34.88;;;;;;;;;;4344700;33;20148;-84
2021/07/15 01:24:33;;;;;;;67.93;34.67;;;;;;;;;;4345100;33;20178;-84
2021/07/15 01:27:35;;;;;;;71.75;34.30;;;;;;;;;;4344975;33;20206;-84
2021/07/15 01:30:12;;;;;;;70.37;34.58;;;;;;;;;;4331782;33;20166;-84
2021/07/15 01:36:29;;;;;;;71.68;36.45;;;;;;;;;;4331586;33;20174;-84
2021/07/15 01:39:16;;;;;;;72.15;35.95;;;;;;;;;;4301232;33;20172;-84
2021/07/15 01:45:21;;;;;;;60.85;34.35;;;;;;;;;;4391219;32;20196;-84
2021/07/15 01:47:52;;;;;;;61.30;29.40;;;;;;;;;;4377395;32;20166;-84
2021/07/15 01:50:59;;;;;;;63.17;32.08;;;;;;;;;;4391910;32;20182;-84
2021/07/15 01:57:14;;;;;;;;;;;;;;;;;;;;;
2021/07/15 02:06:09;;;;;;;59.97;31.75;;;;;;;;;;4338723;32;20155;-84
2021/07/15 02:09:19;;;;;;;;;;;;;;;;;;;;;
2021/07/15 02:12:05;;;;;;;60.05;31.52;;;;;;;;;;4405094;32;20161;-84
2021/07/15 02:23:27;;;;;;;71.90;36.53;;;;;;;;;;4344177;33;20174;-84
2021/07/15 02:29:11;;;;;;;78.82;34.47;;;;;;;;;;4329558;33;20205;-84
2021/07/15 02:31:38;;;;;;;65.45;31.12;;;;;;;;;;4316559;33;20172;-84
2021/07/15 02:34:23;;;;;;;67.90;33.72;;;;;;;;;;4339665;33;20167;-84
2021/07/15 02:36:58;;;;;;;75.15;35.53;;;;;;;;;;4331325;33;20214;-84
2021/07/15 02:39:45;;;;;;;73.05;33.53;;;;;;;;;;4343869;33;20143;-84
2021/07/15 02:42:17;;;;;;;71.22;32.13;;;;;;;;;;4329713;33;20158;-84
2021/07/15 02:44:43;;;;;;;71.15;33.45;;;;;;;;;;4340492;32;20168;-83
2021/07/15 02:47:17;;;;;;;70.20;33.55;;;;;;;;;;4327368;32;20270;-83
2021/07/15 02:49:50;;;;;;;61.67;31.17;;;;;;;;;;4340445;32;20504;-84
2021/07/15 02:52:17;;;;;;;71.43;34.17;;;;;;;;;;4338580;32;20171;-83
2021/07/15 03:04:19;;;;;;;77.28;34.40;;;;;;;;;;4300307;33;20191;-83
2021/07/15 03:06:45;;;;;;;63.58;30.92;;;;;;;;;;4299774;32;20220;-83
2021/07/15 03:09:18;;;;;;;70.00;32.47;;;;;;;;;;4299723;33;20297;-82
2021/07/15 03:12:11;;;;;;;69.95;33.85;;;;;;;;;;4300154;33;20180;-82
2021/07/15 03:23:50;;;;;;;80.93;35.42;;;;;;;;;;4331571;33;20186;-82
2021/07/15 03:30:26;;;;;;;79.25;36.05;;;;;;;;;;4300251;33;20662;-83
2021/07/15 03:33:04;;;;;;;83.18;37.33;;;;;;;;;;4301860;33;20550;-83
2021/07/15 03:35:33;;;;;;;88.70;36.25;;;;;;;;;;4283883;33;20259;-83
2021/07/15 03:38:33;;;;;;;96.82;40.47;;;;;;;;;;4325152;33;20164;-83
2021/07/15 03:41:12;;;;;;;86.90;39.63;;;;;;;;;;4329532;32;20164;-82
2021/07/15 03:46:44;;;;;;;89.50;39.88;;;;;;;;;;4335291;32;20151;-82
2021/07/15 03:49:12;;;;;;;80.72;40.22;;;;;;;;;;4341593;33;20221;-82
2021/07/15 03:51:50;;;;;;;80.85;36.42;;;;;;;;;;4336134;32;20179;-82
2021/07/15 03:54:31;;;;;;;80.18;36.42;;;;;;;;;;4342268;33;20177;-81
2021/07/15 03:56:57;;;;;;;88.37;39.35;;;;;;;;;;4343097;33;20556;-83
2021/07/15 03:59:30;;;;;;;81.20;38.92;;;;;;;;;;4330774;33;20176;-84
2021/07/15 04:05:42;;;;;;;95.82;41.58;;;;;;;;;;4331149;33;20195;-81
2021/07/15 04:08:07;;;;;;;70.15;34.45;;;;;;;;;;4331742;33;20167;-82
2021/07/15 04:10:49;;;;;;;74.05;37.08;;;;;;;;;;4342661;33;20168;-82
2021/07/15 04:13:19;;;;;;;83.25;37.05;;;;;;;;;;4343544;33;20128;-82
2021/07/15 04:16:08;;;;;;;78.87;37.33;;;;;;;;;;4329248;33;20175;-82
2021/07/15 04:19:02;;;;;;;78.00;36.90;;;;;;;;;;4365507;32;20178;-82
2021/07/15 04:21:28;;;;;;;90.12;39.88;;;;;;;;;;4359279;32;20162;-82
2021/07/15 04:24:16;;;;;;;84.13;39.60;;;;;;;;;;4347458;33;20236;-82
2021/07/15 04:27:03;;;;;;;78.05;36.22;;;;;;;;;;4343929;32;20159;-83
2021/07/15 04:32:44;;;;;;;76.60;36.80;;;;;;;;;;4344896;33;20178;-83
2021/07/15 04:35:20;;;;;;;75.53;38.30;;;;;;;;;;4344158;32;20281;-84
2021/07/15 04:37:47;;;;;;;72.45;33.50;;;;;;;;;;4343759;33;20292;-82
2021/07/15 04:46:48;;;;;;;63.20;31.40;;;;;;;;;;4315861;33;20196;-82
2021/07/15 04:49:54;;;;;;;56.58;28.92;;;;;;;;;;4316975;33;20235;-83
2021/07/15 04:52:29;;;;;;;59.25;26.95;;;;;;;;;;4343415;33;20262;-83
2021/07/15 04:54:57;;;;;;;53.40;25.20;;;;;;;;;;4343371;33;20163;-82
2021/07/15 04:57:23;;;;;;;49.38;25.48;;;;;;;;;;4343978;33;20163;-83
2021/07/15 04:59:52;;;;;;;51.37;25.70;;;;;;;;;;4331041;33;20209;-84
2021/07/15 05:02:23;;;;;;;58.55;26.20;;;;;;;;;;4343494;33;20159;-83
2021/07/15 05:04:51;;;;;;;42.78;24.70;;;;;;;;;;4343632;33;20163;-83
2021/07/15 05:07:29;;;;;;;47.00;24.85;;;;;;;;;;4342872;33;20216;-82
2021/07/15 05:10:12;;;;;;;44.63;22.15;;;;;;;;;;4345553;33;20150;-82
2021/07/15 05:12:39;;;;;;;44.38;22.73;;;;;;;;;;4344486;33;20143;-84
2021/07/15 05:15:06;;;;;;;48.45;23.55;;;;;;;;;;4343267;33;20160;-83
2021/07/15 05:17:35;;;;;;;47.42;24.50;;;;;;;;;;4343079;33;20217;-79
2021/07/15 05:20:00;;;;;;;47.22;25.25;;;;;;;;;;4342925;33;20233;-82
2021/07/15 05:22:53;;;;;;;58.45;26.55;;;;;;;;;;4342750;33;20163;-82
2021/07/15 05:26:33;;;;;;;54.10;25.70;;;;;;;;;;4343825;33;20156;-85
2021/07/15 05:31:21;;;;;;;52.60;23.12;;;;;;;;;;4359362;32;20155;-83
2021/07/15 05:34:05;;;;;;;50.45;24.48;;;;;;;;;;4356005;32;20178;-84
2021/07/15 05:39:44;;;;;;;49.50;25.10;;;;;;;;;;4298093;33;20653;-83
2021/07/15 05:42:10;;;;;;;48.67;23.23;;;;;;;;;;4298144;33;20188;-83
2021/07/15 05:47:58;;;;;;;44.22;22.98;;;;;;;;;;4344534;33;20191;-82
2021/07/15 05:50:24;;;;;;;41.08;21.35;;;;;;;;;;4316129;33;20303;-83
2021/07/15 05:53:02;;;;;;;39.72;20.05;;;;;;;;;;4335565;33;20672;-83
2021/07/15 05:55:43;;;;;;;37.30;21.75;;;;;;;;;;4301801;32;20171;-82
2021/07/15 05:58:50;;;;;;;44.17;20.27;;;;;;;;;;4300157;33;20229;-82
2021/07/15 06:01:40;;;;;;;38.88;20.60;;;;;;;;;;4340372;33;20527;-83
2021/07/15 06:04:21;;;;;;;35.80;20.02;;;;;;;;;;4328568;33;20198;-82
2021/07/15 06:06:49;;;;;;;42.38;19.67;;;;;;;;;;4340698;32;20178;-83
2021/07/15 06:10:30;;;;;;;;;;;;;;;;;;;;;
2021/07/15 06:15:56;;;;;;;45.00;20.10;;;;;;;;;;4354044;32;20491;-83
2021/07/15 06:18:22;;;;;;;39.85;19.90;;;;;;;;;;4343844;33;20159;-82
2021/07/15 06:20:47;;;;;;;41.20;20.20;;;;;;;;;;4343833;33;20162;-85
2021/07/15 06:23:47;;;;;;;40.95;20.17;;;;;;;;;;4342288;33;20164;-82
2021/07/15 06:26:57;;;;;;;34.17;19.25;;;;;;;;;;4342632;33;20163;-84
2021/07/15 06:29:18;;;;;;;34.42;18.85;;;;;;;;;;4335872;33;20174;-82
2021/07/15 06:31:43;;;;;;;39.08;18.65;;;;;;;;;;4341946;33;20190;-81
2021/07/15 06:34:12;;;;;;;36.53;17.05;;;;;;;;;;4342655;33;20180;-83
2021/07/15 06:36:39;;;;;;;32.83;16.58;;;;;;;;;;4342194;33;20163;-82
2021/07/15 06:39:07;;;;;;;34.33;16.48;;;;;;;;;;4341987;32;20467;-81
2021/07/15 06:41:36;;;;;;;27.75;14.63;;;;;;;;;;4331431;33;20171;-82
2021/07/15 06:44:13;;;;;;;33.47;15.38;;;;;;;;;;4340091;33;20232;-83
2021/07/15 06:46:41;;;;;;;32.22;14.02;;;;;;;;;;4341875;33;20179;-82
2021/07/15 06:49:09;;;;;;;32.72;14.48;;;;;;;;;;4343155;33;20159;-83
2021/07/15 06:51:48;;;;;;;25.42;13.20;;;;;;;;;;4342046;33;20167;-82
2021/07/15 06:54:14;;;;;;;26.40;12.35;;;;;;;;;;4341923;33;20235;-83
2021/07/15 06:56:54;;;;;;;25.40;12.75;;;;;;;;;;4341959;33;20167;-83
2021/07/15 06:59:23;;;;;;;28.50;11.75;;;;;;;;;;4341560;33;20155;-83
2021/07/15 07:01:48;;;;;;;28.15;12.95;;;;;;;;;;4341443;33;20163;-83
2021/07/15 07:04:13;;;;;;;27.98;12.25;;;;;;;;;;4342073;32;20224;-83
2021/07/15 07:06:38;;;;;;;31.33;12.63;;;;;;;;;;4341819;33;20181;-83
2021/07/15 07:09:06;;;;;;;26.33;12.13;;;;;;;;;;4342027;33;20158;-81
2021/07/15 07:11:34;;;;;;;29.12;12.35;;;;;;;;;;4341403;33;20164;-83
2021/07/15 07:14:08;;;;;;;25.25;12.02;;;;;;;;;;4342386;33;20155;-84
2021/07/15 07:16:37;;;;;;;23.55;11.80;;;;;;;;;;4342060;33;20193;-83
2021/07/15 07:19:02;;;;;;;27.65;12.37;;;;;;;;;;4341937;33;20182;-83
2021/07/15 07:21:34;;;;;;;25.45;12.57;;;;;;;;;;4341714;33;20238;-84
2021/07/15 07:24:07;;;;;;;25.92;12.15;;;;;;;;;;4341715;33;20167;-82
2021/07/15 07:26:38;;;;;;;25.98;11.40;;;;;;;;;;4342398;33;20174;-84
2021/07/15 07:32:11;;;;;;;23.45;11.93;;;;;;;;;;4373272;32;20176;-83
2021/07/15 07:35:07;;;;;;;24.75;11.63;;;;;;;;;;4359845;32;20614;-83
2021/07/15 07:37:59;;;;;;;25.88;11.63;;;;;;;;;;4360504;32;20197;-82
2021/07/15 07:43:40;;;;;;;23.33;9.57;;;;;;;;;;4335015;33;20198;-84
2021/07/15 07:46:37;;;;;;;24.23;10.05;;;;;;;;;;4334763;32;20163;-82
2021/07/15 07:49:05;;;;;;;23.55;10.55;;;;;;;;;;4343619;32;20628;-83
2021/07/15 07:51:30;;;;;;;21.65;9.40;;;;;;;;;;4340808;32;20655;-82
2021/07/15 07:54:06;;;;;;;;;;;;;;;;;;;;;
2021/07/15 07:56:43;;;;;;;22.95;9.43;;;;;;;;;;4345583;33;20166;-83
2021/07/15 08:02:12;;;;;;;23.92;9.52;;;;;;;;;;4327449;33;20182;-84
2021/07/15 08:04:37;;;;;;;18.95;8.85;;;;;;;;;;4342683;32;20175;-83
2021/07/15 08:13:43;;;;;;;18.52;8.73;;;;;;;;;;4346530;33;20143;-83
2021/07/15 08:16:54;;;;;;;16.60;8.75;;;;;;;;;;4327096;33;20481;-83
2021/07/15 08:19:29;;;;;;;18.85;8.30;;;;;;;;;;4335193;33;20211;-83
2021/07/15 08:21:58;;;;;;;18.83;9.02;;;;;;;;;;4343985;33;20163;-83
2021/07/15 08:24:33;;;;;;;;;;;;;;;;;;;;;
2021/07/15 08:27:25;;;;;;;18.05;8.82;;;;;;;;;;4329563;33;20171;-81
2021/07/15 08:29:51;;;;;;;18.62;8.55;;;;;;;;;;4345953;33;20198;-83
2021/07/15 08:32:26;;;;;;;;;;;;;;;;;;;;;
2021/07/15 08:35:05;;;;;;;19.15;8.05;;;;;;;;;;4335753;33;20181;-84
2021/07/15 08:37:31;;;;;;;16.55;9.10;;;;;;;;;;4343428;33;20659;-83
2021/07/15 08:39:56;;;;;;;18.27;8.50;;;;;;;;;;4343392;33;20181;-84
2021/07/15 08:42:30;;;;;;;18.20;8.45;;;;;;;;;;4343899;33;20501;-83
2021/07/15 08:45:07;;;;;;;23.87;8.80;;;;;;;;;;4344329;33;20146;-85
2021/07/15 08:50:39;;;;;;;14.75;7.35;;;;;;;;;;4340424;33;20255;-83
2021/07/15 08:53:05;;;;;;;14.65;8.00;;;;;;;;;;4343761;33;20167;-84
2021/07/15 08:58:15;;;;;;;18.17;7.47;;;;;;;;;;4344845;33;20166;-83
2021/07/15 09:00:44;;;;;;;17.67;8.07;;;;;;;;;;4343416;33;20195;-82
2021/07/15 09:03:17;;;;;;;15.90;8.10;;;;;;;;;;4343450;33;20163;-82
2021/07/15 09:06:02;;;;;;;18.45;7.82;;;;;;;;;;4343405;33;20173;-83
2021/07/15 09:08:57;;;;;;;;;;;;;;;;;;;;;
2021/07/15 09:11:23;;;;;;;16.00;7.80;;;;;;;;;;4284188;33;20168;-83
2021/07/15 09:13:54;;;;;;;23.35;9.07;;;;;;;;;;4284195;33;20227;-83
2021/07/15 09:16:34;;;;;;;18.90;8.57;;;;;;;;;;4340430;33;20155;-83
2021/07/15 09:19:01;;;;;;;19.55;8.57;;;;;;;;;;4404568;32;20632;-82
2021/07/15 09:21:33;;;;;;;20.52;9.20;;;;;;;;;;4404423;32;20633;-82
2021/07/15 09:23:58;;;;;;;19.67;8.57;;;;;;;;;;4404475;32;20199;-85
2021/07/15 09:26:24;;;;;;;19.55;8.40;;;;;;;;;;4404496;32;20566;-82
2021/07/15 09:28:52;;;;;;;17.40;8.73;;;;;;;;;;4404742;32;20626;-83
2021/07/15 09:31:21;;;;;;;21.33;8.65;;;;;;;;;;4404625;32;20150;-83
2021/07/15 09:33:47;;;;;;;17.42;8.40;;;;;;;;;;4403914;32;20173;-83
2021/07/15 09:36:22;;;;;;;22.48;8.45;;;;;;;;;;4404096;32;20232;-83
2021/07/15 09:39:02;;;;;;;16.50;8.13;;;;;;;;;;4404967;32;20220;-83
2021/07/15 09:41:28;;;;;;;16.55;8.48;;;;;;;;;;4404161;32;20150;-82
2021/07/15 09:44:13;;;;;;;18.33;8.18;;;;;;;;;;4365471;32;20152;-83
2021/07/15 09:46:50;;;;;;;14.77;8.48;;;;;;;;;;4343084;33;20186;-82
2021/07/15 09:49:55;;;;;;;17.48;8.70;;;;;;;;;;4342951;33;20144;-82
2021/07/15 09:52:23;;;;;;;16.62;8.77;;;;;;;;;;4330168;32;20159;-83
2021/07/15 09:54:55;;;;;;;16.08;9.20;;;;;;;;;;4331489;33;20232;-82
2021/07/15 09:57:32;;;;;;;14.32;8.68;;;;;;;;;;4343269;33;20181;-81
2021/07/15 10:00:08;;;;;;;16.52;9.40;;;;;;;;;;4343457;32;20236;-81
2021/07/15 10:02:33;;;;;;;17.83;9.85;;;;;;;;;;4342897;33;20151;-82
2021/07/15 10:05:22;;;;;;;17.95;9.30;;;;;;;;;;4342909;33;20181;-81
2021/07/15 10:07:50;;;;;;;19.60;9.32;;;;;;;;;;4338306;33;20227;-81
2021/07/15 10:10:25;;;;;;;15.57;8.68;;;;;;;;;;4341890;33;20148;-82
2021/07/15 10:13:18;;;;;;;19.62;9.50;;;;;;;;;;4342290;33;20178;-82
2021/07/15 10:15:50;;;;;;;14.00;8.38;;;;;;;;;;4343681;33;20174;-81
2021/07/15 10:18:33;;;;;;;16.37;9.02;;;;;;;;;;4342627;33;20168;-81
2021/07/15 10:21:28;;;;;;;14.18;8.52;;;;;;;;;;4344483;32;20616;-81
2021/07/15 10:24:20;;;;;;;15.07;9.27;;;;;;;;;;4343462;32;20197;-79
2021/07/15 10:27:09;;;;;;;25.10;10.90;;;;;;;;;;4343987;32;20139;-79
2021/07/15 10:29:57;;;;;;;18.52;10.85;;;;;;;;;;4341812;33;20595;-78
2021/07/15 10:32:23;;;;;;;19.02;10.73;;;;;;;;;;4343054;32;20249;-78
2021/07/15 10:34:58;;;;;;;19.20;10.57;;;;;;;;;;4341971;33;20184;-80
2021/07/15 10:37:25;;;;;;;20.30;12.00;;;;;;;;;;4342574;33;20202;-80
2021/07/15 10:40:59;;;;;;;19.90;11.80;;;;;;;;;;4341783;33;20179;-78
2021/07/15 10:43:12;;;;;;;23.60;12.82;;;;;;;;;;4338689;33;20176;-82
2021/07/15 10:46:09;;;;;;;25.98;14.13;;;;;;;;;;4342671;33;20159;-81
2021/07/15 10:49:00;;;;;;;21.05;13.15;;;;;;;;;;4328742;33;20612;-80
2021/07/15 10:58:43;;;;;;;;;;;;;;;;;;;;;
2021/07/15 11:03:36;;;;;;;20.67;12.48;;;;;;;;;;4302242;33;20236;-80
2021/07/15 11:06:07;;;;;;;22.17;12.95;;;;;;;;;;4314050;33;20294;-79
2021/07/15 11:08:48;;;;;;;20.27;11.50;;;;;;;;;;4314126;33;20148;-79
2021/07/15 11:30:08;;;;;;;;;;;;;;;;;;;;;
2021/07/15 11:36:16;;;;;;;24.90;12.25;;;;;;;;;;4233562;33;20149;-79
2021/07/15 11:38:55;;;;;;;;;;;;;;;;;;;;;
2021/07/15 11:48:14;;;;;;;;;;;;;;;;;;;;;
2021/07/15 11:50:40;;;;;;;24.42;11.23;;;;;;;;;;4271283;33;20180;-77
2021/07/15 11:53:43;;;;;;;;;;;;;;;;;;;;;
2021/07/15 11:56:45;;;;;;;21.48;11.82;;;;;;;;;;4297287;33;20161;-81
2021/07/15 12:06:03;;;;;;;;;;;;;;;;;;;;;
2021/07/15 12:09:08;;;;;;;20.55;11.60;;;;;;;;;;4362893;32;20603;-80
2021/07/15 12:11:38;;;;;;;22.83;10.60;;;;;;;;;;4345478;32;20155;-80
2021/07/15 12:14:13;;;;;;;20.20;10.82;;;;;;;;;;4354646;32;20177;-83
2021/07/15 12:20:35;;;;;;;;;;;;;;;;;;;;;
2021/07/15 12:22:51;;;;;;;20.98;9.38;;;;;;;;;;4300106;33;20485;-81
2021/07/15 12:31:11;;;;;;;15.05;8.05;;;;;;;;;;4344617;33;20210;-81
2021/07/15 12:34:02;;;;;;;14.70;8.95;;;;;;;;;;4367413;32;20205;-81
2021/07/15 12:37:21;;;;;;;17.23;8.88;;;;;;;;;;4342321;33;20182;-82
2021/07/15 12:40:36;;;;;;;17.48;8.85;;;;;;;;;;4342671;33;20212;-80
2021/07/15 12:43:15;;;;;;;15.02;7.87;;;;;;;;;;4344811;32;20156;-80
2021/07/15 12:46:16;;;;;;;17.00;8.45;;;;;;;;;;4344580;33;20190;-81
2021/07/15 12:52:00;;;;;;;14.57;8.07;;;;;;;;;;4373770;32;20303;-81
2021/07/15 12:55:06;;;;;;;14.00;8.02;;;;;;;;;;4357434;32;20164;-80
2021/07/15 13:00:33;;;;;;;16.48;8.18;;;;;;;;;;4333468;33;20207;-81
2021/07/15 13:03:17;;;;;;;17.58;8.20;;;;;;;;;;4345499;32;20242;-81
2021/07/15 13:14:40;;;;;;;16.87;8.20;;;;;;;;;;4343895;33;20162;-80
2021/07/15 13:18:08;;;;;;;19.50;9.05;;;;;;;;;;4342367;33;20581;-81
2021/07/15 13:24:19;;;;;;;12.82;7.25;;;;;;;;;;4298420;33;20153;-81
2021/07/15 13:36:02;;;;;;;21.10;10.30;;;;;;;;;;4284012;33;20206;-80
2021/07/15 13:38:39;;;;;;;20.40;9.75;;;;;;;;;;4287887;33;20137;-81
2021/07/15 13:42:06;;;;;;;22.08;10.18;;;;;;;;;;4329102;33;20151;-81
2021/07/15 13:47:32;;;;;;;25.52;9.88;;;;;;;;;;4341680;33;20186;-80
2021/07/15 13:59:47;;;;;;;21.40;12.88;;;;;;;;;;4350820;33;20164;-80
2021/07/15 14:05:41;;;;;;;21.50;12.95;;;;;;;;;;4358122;32;20543;-80
2021/07/15 14:08:33;;;;;;;18.98;12.07;;;;;;;;;;4343746;33;20156;-80
2021/07/15 14:29:16;;;;;;;22.30;9.88;;;;;;;;;;4232869;33;20161;-81
2021/07/15 14:35:06;;;;;;;20.90;9.95;;;;;;;;;;4276805;33;20278;-79
2021/07/15 14:37:44;;;;;;;;;;;;;;;;;;;;;
2021/07/15 14:40:10;;;;;;;15.30;9.57;;;;;;;;;;4298448;33;20169;-81
2021/07/15 14:52:23;;;;;;;16.27;8.00;;;;;;;;;;4307469;33;20203;-83
2021/07/15 14:58:25;;;;;;;11.82;6.85;;;;;;;;;;4321764;33;20156;-82
2021/07/15 15:09:52;;;;;;;13.07;7.37;;;;;;;;;;4363443;32;20193;-81
2021/07/15 15:12:28;;;;;;;13.73;7.62;;;;;;;;;;4346669;33;20208;-82
2021/07/15 15:14:56;;;;;;;14.95;7.30;;;;;;;;;;4340574;32;20171;-83
2021/07/15 15:17:24;;;;;;;14.23;6.57;;;;;;;;;;4342603;33;20258;-81
2021/07/15 15:19:49;;;;;;;12.68;6.70;;;;;;;;;;4347909;32;20163;-81
2021/07/15 15:22:15;;;;;;;10.55;5.87;;;;;;;;;;4392368;32;20217;-82
2021/07/15 15:24:59;;;;;;;14.15;6.50;;;;;;;;;;4361891;32;20217;-82
2021/07/15 15:27:24;;;;;;;11.93;6.10;;;;;;;;;;4360573;32;20226;-81
2021/07/15 15:29:49;;;;;;;14.38;6.32;;;;;;;;;;4360828;32;20208;-81
2021/07/15 15:32:17;;;;;;;9.90;6.00;;;;;;;;;;4361052;32;20615;-80
2021/07/15 15:35:18;;;;;;;15.20;6.40;;;;;;;;;;4362493;33;20173;-81
2021/07/15 15:37:43;;;;;;;12.57;6.37;;;;;;;;;;4353944;33;20541;-81
2021/07/15 15:40:09;;;;;;;12.13;5.95;;;;;;;;;;4360690;32;20190;-83
2021/07/15 15:42:40;;;;;;;14.87;6.32;;;;;;;;;;4361192;32;20159;-82
2021/07/15 15:45:12;;;;;;;14.07;6.05;;;;;;;;;;4361601;33;20171;-81
2021/07/15 15:47:40;;;;;;;14.30;6.15;;;;;;;;;;4361195;32;20223;-83
2021/07/15 15:53:14;;;;;;;13.55;5.75;;;;;;;;;;4362933;33;20195;-82
2021/07/15 15:55:48;;;;;;;11.45;5.25;;;;;;;;;;4361110;33;20170;-84
2021/07/15 15:58:24;;;;;;;11.93;5.68;;;;;;;;;;4349719;32;20165;-83
2021/07/15 16:00:56;;;;;;;15.43;6.10;;;;;;;;;;4362031;32;20510;-82
2021/07/15 16:03:36;;;;;;;12.10;5.53;;;;;;;;;;4361112;33;20190;-84
2021/07/15 16:06:36;;;;;;;12.57;5.80;;;;;;;;;;4360504;32;20248;-84
2021/07/15 16:12:47;;;;;;;;;;;;;;;;;;;;;
2021/07/15 16:15:11;;;;;;;10.75;5.28;;;;;;;;;;4325108;33;20214;-82
2021/07/15 16:18:07;;;;;;;9.63;5.10;;;;;;;;;;4328478;33;20233;-82
2021/07/15 16:20:36;;;;;;;17.25;5.70;;;;;;;;;;4329905;32;20496;-80
2021/07/15 16:23:40;;;;;;;12.10;4.97;;;;;;;;;;4346915;33;20538;-82
2021/07/15 16:26:05;;;;;;;12.13;5.55;;;;;;;;;;4357990;32;20565;-79
2021/07/15 16:28:43;;;;;;;12.35;4.95;;;;;;;;;;4358449;32;20202;-82
2021/07/15 16:31:18;;;;;;;9.55;4.60;;;;;;;;;;4358580;32;20213;-83
2021/07/15 16:34:07;;;;;;;12.98;4.62;;;;;;;;;;4359105;32;20210;-83
2021/07/15 16:36:37;;;;;;;9.23;4.43;;;;;;;;;;4360028;32;20194;-83
2021/07/15 16:39:03;;;;;;;10.45;4.70;;;;;;;;;;4358390;32;20588;-82
2021/07/15 16:41:34;;;;;;;11.02;4.85;;;;;;;;;;4358474;32;20160;-82
2021/07/15 16:44:27;;;;;;;12.73;4.87;;;;;;;;;;4358636;32;20580;-81
2021/07/15 16:46:56;;;;;;;9.27;4.10;;;;;;;;;;4356292;33;20163;-82
2021/07/15 16:49:41;;;;;;;14.87;5.07;;;;;;;;;;4358520;32;20225;-82
2021/07/15 16:52:23;;;;;;;10.40;4.90;;;;;;;;;;4351163;33;20187;-82
2021/07/15 16:54:48;;;;;;;15.40;5.12;;;;;;;;;;4357916;33;20162;-83
2021/07/15 16:57:49;;;;;;;12.63;4.87;;;;;;;;;;4357973;33;20175;-82
2021/07/15 17:00:59;;;;;;;10.95;4.60;;;;;;;;;;4357435;33;20213;-83
2021/07/15 17:03:25;;;;;;;10.00;4.90;;;;;;;;;;4358247;33;20175;-84
2021/07/15 17:05:50;;;;;;;11.63;4.78;;;;;;;;;;4358066;33;20508;-83
2021/07/15 17:08:16;;;;;;;11.93;4.50;;;;;;;;;;4358066;32;20168;-83
2021/07/15 17:10:41;;;;;;;10.45;5.12;;;;;;;;;;4358018;32;20642;-81
2021/07/15 17:13:10;;;;;;;11.80;4.97;;;;;;;;;;4357731;32;20272;-81
2021/07/15 17:15:35;;;;;;;11.12;5.22;;;;;;;;;;4355902;32;20183;-83
2021/07/15 17:21:04;;;;;;;10.98;4.82;;;;;;;;;;4359242;32;20138;-83
2021/07/15 17:23:40;;;;;;;;;;;;;;;;;;;;;
2021/07/15 17:26:20;;;;;;;12.13;5.53;;;;;;;;;;4358928;33;20130;-82
2021/07/15 17:28:49;;;;;;;11.60;5.00;;;;;;;;;;4345559;33;20190;-83
2021/07/15 17:31:16;;;;;;;10.43;5.37;;;;;;;;;;4345666;33;20167;-82
2021/07/15 17:33:53;;;;;;;9.32;5.50;;;;;;;;;;4345437;33;20202;-82
2021/07/15 17:42:52;;;;;;;12.25;5.85;;;;;;;;;;4389125;32;20200;-80
2021/07/15 17:45:17;;;;;;;13.95;5.32;;;;;;;;;;4376411;32;20659;-81
2021/07/15 17:47:57;;;;;;;11.90;5.55;;;;;;;;;;4386623;32;20239;-82
2021/07/15 17:50:44;;;;;;;10.70;5.18;;;;;;;;;;4355309;32;20190;-81
2021/07/15 17:53:16;;;;;;;11.18;5.57;;;;;;;;;;4333944;33;20159;-82
2021/07/15 17:55:42;;;;;;;10.68;5.12;;;;;;;;;;4345697;33;20236;-83
2021/07/15 17:58:08;;;;;;;15.18;5.05;;;;;;;;;;4345477;33;20584;-82
2021/07/15 18:01:04;;;;;;;11.20;5.62;;;;;;;;;;4345111;33;20189;-82
2021/07/15 18:03:45;;;;;;;10.52;5.18;;;;;;;;;;4359557;33;20155;-83
2021/07/15 18:06:11;;;;;;;11.38;4.97;;;;;;;;;;4345239;33;20159;-83
2021/07/15 18:11:25;;;;;;;8.63;4.72;;;;;;;;;;4356517;33;20517;-82
2021/07/15 18:16:52;;;;;;;12.18;4.68;;;;;;;;;;4350183;33;20159;-82
2021/07/15 18:19:33;;;;;;;8.80;4.95;;;;;;;;;;4345298;33;20205;-82
2021/07/15 18:22:26;;;;;;;10.55;4.78;;;;;;;;;;4344526;33;20537;-82
2021/07/15 18:24:56;;;;;;;9.32;4.90;;;;;;;;;;4344978;33;20248;-81
2021/07/15 18:30:16;;;;;;;9.07;4.80;;;;;;;;;;4354660;32;20509;-80
2021/07/15 18:32:42;;;;;;;13.38;4.87;;;;;;;;;;4340243;32;20186;-81
2021/07/15 18:35:14;;;;;;;9.70;4.55;;;;;;;;;;4344613;33;20152;-81
2021/07/15 18:37:43;;;;;;;11.65;5.05;;;;;;;;;;4345056;32;20143;-81
2021/07/15 18:40:10;;;;;;;10.27;5.15;;;;;;;;;;4344672;32;20155;-82
2021/07/15 18:42:41;;;;;;;8.98;5.05;;;;;;;;;;4344557;32;20143;-82
2021/07/15 18:45:11;;;;;;;10.80;4.90;;;;;;;;;;4332777;33;20185;-82
2021/07/15 18:47:54;;;;;;;;;;;;;;;;;;;;;
2021/07/15 18:50:35;;;;;;;11.55;5.30;;;;;;;;;;4358395;33;20151;-83
2021/07/15 18:53:12;;;;;;;12.25;5.30;;;;;;;;;;4344319;32;20647;-83
2021/07/15 18:58:45;;;;;;;8.98;4.53;;;;;;;;;;4357989;33;20170;-82
2021/07/15 19:01:51;;;;;;;11.90;5.20;;;;;;;;;;4345300;33;20204;-82
2021/07/15 19:04:48;;;;;;;10.32;4.95;;;;;;;;;;4343803;33;20219;-82
2021/07/15 19:09:58;;;;;;;10.43;5.05;;;;;;;;;;4282396;33;20152;-82
2021/07/15 19:12:42;;;;;;;10.75;5.00;;;;;;;;;;4334045;33;20517;-83
2021/07/15 19:15:19;;;;;;;;;;;;;;;;;;;;;
2021/07/15 19:21:01;;;;;;;14.05;5.25;;;;;;;;;;4297052;33;20222;-83
2021/07/15 19:23:27;;;;;;;12.43;5.10;;;;;;;;;;4344805;33;20170;-83
2021/07/15 19:25:52;;;;;;;12.57;5.50;;;;;;;;;;4336647;33;20497;-83
2021/07/15 19:28:53;;;;;;;14.43;5.62;;;;;;;;;;4342795;33;20167;-83
2021/07/15 19:31:26;;;;;;;12.98;5.70;;;;;;;;;;4330200;33;20216;-82
2021/07/15 19:34:10;;;;;;;;;;;;;;;;;;;;;
2021/07/15 19:39:56;;;;;;;11.90;5.90;;;;;;;;;;4311976;33;20227;-83
2021/07/15 19:42:45;;;;;;;10.50;5.82;;;;;;;;;;4301415;33;20164;-83
2021/07/15 19:45:13;;;;;;;15.15;6.10;;;;;;;;;;4309817;33;20311;-82
2021/07/15 19:51:05;;;;;;;17.70;6.18;;;;;;;;;;4349437;33;20273;-83
2021/07/15 19:59:39;;;;;;;13.13;5.97;;;;;;;;;;4314470;33;20178;-83
2021/07/15 20:05:29;;;;;;;11.25;5.82;;;;;;;;;;4286574;33;20141;-84
2021/07/15 20:07:57;;;;;;;12.18;5.80;;;;;;;;;;4308192;33;20160;-83
2021/07/15 20:10:53;;;;;;;13.52;5.90;;;;;;;;;;4350357;32;20201;-84
2021/07/15 20:16:21;;;;;;;;;;;;;;;;;;;;;
2021/07/15 20:18:46;;;;;;;12.48;5.55;;;;;;;;;;4375684;32;20138;-81
2021/07/15 20:21:47;;;;;;;13.38;5.50;;;;;;;;;;4373240;32;20217;-82
2021/07/15 20:24:19;;;;;;;11.23;5.70;;;;;;;;;;4345436;33;20156;-82
2021/07/15 20:29:34;;;;;;;11.43;5.45;;;;;;;;;;4351091;32;20581;-83
2021/07/15 20:32:34;;;;;;;12.60;5.70;;;;;;;;;;4340964;33;20194;-82
2021/07/15 20:35:39;;;;;;;;;;;;;;;;;;;;;
2021/07/15 20:38:28;;;;;;;12.25;5.45;;;;;;;;;;4333607;33;20174;-83
2021/07/15 20:41:02;;;;;;;13.88;5.82;;;;;;;;;;4324636;33;20182;-82
2021/07/15 20:43:35;;;;;;;11.25;6.07;;;;;;;;;;4364792;32;20197;-83
2021/07/15 20:46:14;;;;;;;12.52;5.93;;;;;;;;;;4362779;32;20227;-83
2021/07/15 20:48:39;;;;;;;10.70;6.28;;;;;;;;;;4339147;32;20155;-83
2021/07/15 20:51:18;;;;;;;;;;;;;;;;;;;;;
2021/07/15 20:53:55;;;;;;;;;;;;;;;;;;;;;
2021/07/15 20:56:25;;;;;;;11.25;5.57;;;;;;;;;;4382602;32;20139;-83
2021/07/15 20:59:14;;;;;;;9.30;5.57;;;;;;;;;;4338326;33;20239;-83
2021/07/15 21:01:55;;;;;;;15.18;6.60;;;;;;;;;;4330958;33;20158;-82
2021/07/15 21:04:40;;;;;;;9.82;5.62;;;;;;;;;;4333257;33;20506;-82
2021/07/15 21:07:06;;;;;;;12.77;6.15;;;;;;;;;;4329773;32;20186;-83
2021/07/15 21:09:34;;;;;;;9.73;5.47;;;;;;;;;;4330657;33;20151;-83
2021/07/15 21:11:59;;;;;;;11.52;5.35;;;;;;;;;;4330788;32;20163;-83
2021/07/15 21:14:32;;;;;;;10.48;5.30;;;;;;;;;;4344861;33;20151;-82
2021/07/15 21:16:58;;;;;;;10.00;4.87;;;;;;;;;;4330843;33;20213;-83
2021/07/15 21:19:33;;;;;;;14.55;5.65;;;;;;;;;;4330767;32;20155;-82
2021/07/15 21:22:01;;;;;;;12.85;5.50;;;;;;;;;;4334785;32;20186;-83
2021/07/15 21:24:31;;;;;;;12.63;5.50;;;;;;;;;;4345673;32;20216;-84
2021/07/15 21:26:57;;;;;;;7.55;4.55;;;;;;;;;;4328236;32;20167;-84